createdAt,value
2023-04-23T00:01:02.580Z,67.23
2023-04-23T00:02:06.303Z,66.75
2023-04-23T00:03:10.350Z,66.04
2023-04-23T00:04:13.719Z,65.28
2023-04-23T00:05:16.712Z,64.89
2023-04-23T00:06:19.645Z,64.43
2023-04-23T00:07:22.207Z,64.07
2023-04-23T00:08:24.493Z,63.88
2023-04-23T00:09:30.091Z,63.83
2023-04-23T00:10:32.669Z,64.54
2023-04-23T00:11:34.766Z,65.28
2023-04-23T00:12:37.236Z,65.80
2023-04-23T00:13:39.713Z,65.52
2023-04-23T00:14:42.036Z,64.83
2023-04-23T00:15:44.568Z,64.60
2023-04-23T00:16:46.680Z,64.88
2023-04-23T00:17:49.268Z,65.11
2023-04-23T00:18:51.179Z,64.45
2023-04-23T00:19:53.193Z,64.12
2023-04-23T00:20:55.303Z,63.71
2023-04-23T00:21:57.177Z,63.97
2023-04-23T00:22:59.320Z,63.50
2023-04-23T00:24:01.149Z,63.17
2023-04-23T00:25:03.326Z,62.84
2023-04-23T00:26:05.553Z,62.40
2023-04-23T00:27:07.418Z,62.88
2023-04-23T00:28:09.642Z,62.66
2023-04-23T00:29:11.515Z,62.55
2023-04-23T00:30:13.506Z,63.33
2023-04-23T00:31:15.547Z,63.43
2023-04-23T00:32:17.610Z,62.81
2023-04-23T00:33:20.035Z,62.75
2023-04-23T00:34:21.911Z,62.46
2023-04-23T00:35:23.897Z,62.25
2023-04-23T00:36:26.413Z,63.06
2023-04-23T00:37:29.045Z,63.18
2023-04-23T00:38:31.213Z,62.83
2023-04-23T00:39:33.094Z,62.54
2023-04-23T00:40:35.153Z,62.22
2023-04-23T00:41:37.092Z,61.68
2023-04-23T00:42:40.036Z,61.45
2023-04-23T00:43:43.868Z,61.47
2023-04-23T00:44:46.439Z,61.30
2023-04-23T00:45:48.486Z,61.28
2023-04-23T00:46:52.250Z,61.69
2023-04-23T00:47:54.781Z,62.44
2023-04-23T00:48:58.187Z,62.92
2023-04-23T00:50:00.629Z,63.57
2023-04-23T00:51:06.477Z,63.85
2023-04-23T00:52:08.425Z,63.35
2023-04-23T00:53:10.431Z,63.22
2023-04-23T00:54:12.678Z,63.08
2023-04-23T00:55:14.718Z,63.46
2023-04-23T00:56:18.082Z,63.42
2023-04-23T00:57:20.093Z,63.26
2023-04-23T00:58:22.872Z,62.91
2023-04-23T00:59:28.863Z,63.10
2023-04-23T01:00:30.750Z,63.27
2023-04-23T01:01:33.272Z,63.27
2023-04-23T01:02:37.523Z,63.43
2023-04-23T01:03:42.319Z,62.99
2023-04-23T01:04:45.603Z,63.44
2023-04-23T01:05:49.544Z,63.56
2023-04-23T01:06:51.751Z,64.04
2023-04-23T01:07:54.456Z,64.05
2023-04-23T01:08:56.522Z,64.29
2023-04-23T01:09:59.074Z,63.82
2023-04-23T01:11:03.273Z,64.16
2023-04-23T01:12:09.820Z,63.75
2023-04-23T01:13:15.196Z,63.30
2023-04-23T01:14:17.561Z,63.72
2023-04-23T01:15:19.858Z,64.03
2023-04-23T01:16:22.194Z,64.14
2023-04-23T01:17:24.241Z,63.67
2023-04-23T01:18:28.401Z,63.15
2023-04-23T01:19:30.298Z,62.94
2023-04-23T01:20:32.630Z,62.79
2023-04-23T01:21:38.229Z,62.39
2023-04-23T01:22:40.075Z,62.52
2023-04-23T01:23:41.974Z,62.18
2023-04-23T01:24:45.104Z,62.45
2023-04-23T01:25:47.637Z,62.35
2023-04-23T01:26:49.583Z,62.12
2023-04-23T01:27:51.632Z,62.12
2023-04-23T01:28:54.152Z,62.33
2023-04-23T01:29:56.753Z,63.02
2023-04-23T01:30:59.888Z,63.12
2023-04-23T01:32:03.306Z,63.07
2023-04-23T01:33:06.570Z,63.18
2023-04-23T01:34:08.673Z,62.18
2023-04-23T01:35:13.173Z,62.47
2023-04-23T01:36:15.719Z,62.35
2023-04-23T01:37:17.862Z,62.47
2023-04-23T01:38:22.354Z,62.25
2023-04-23T01:39:24.460Z,62.18
2023-04-23T01:40:26.376Z,62.07
2023-04-23T01:41:28.652Z,62.90
2023-04-23T01:42:30.528Z,62.84
2023-04-23T01:43:32.612Z,63.32
2023-04-23T01:44:34.667Z,64.53
2023-04-23T01:45:36.908Z,63.69
2023-04-23T01:46:39.349Z,62.87
2023-04-23T01:47:42.102Z,63.54
2023-04-23T01:48:44.221Z,63.39
2023-04-23T01:49:46.964Z,63.00
2023-04-23T01:50:51.250Z,62.08
2023-04-23T01:51:53.421Z,62.13
2023-04-23T01:52:55.580Z,61.89
2023-04-23T01:53:57.553Z,61.81
2023-04-23T01:54:59.587Z,61.84
2023-04-23T01:56:02.425Z,61.69
2023-04-23T01:57:04.837Z,61.76
2023-04-23T01:58:07.628Z,61.72
2023-04-23T01:59:09.531Z,61.52
2023-04-23T02:00:12.853Z,61.77
2023-04-23T02:01:15.386Z,62.33
2023-04-23T02:02:17.420Z,63.42
2023-04-23T02:03:19.499Z,64.22
2023-04-23T02:04:21.772Z,65.74
2023-04-23T02:05:29.410Z,65.07
2023-04-23T02:06:32.552Z,65.67
2023-04-23T02:07:34.785Z,65.60
2023-04-23T02:08:36.999Z,65.58
2023-04-23T02:09:39.974Z,65.50
2023-04-23T02:10:42.190Z,65.06
2023-04-23T02:11:44.060Z,64.37
2023-04-23T02:12:46.854Z,64.86
2023-04-23T02:13:48.715Z,65.09
2023-04-23T02:14:50.910Z,64.35
2023-04-23T02:15:53.178Z,63.93
2023-04-23T02:16:55.964Z,63.70
2023-04-23T02:17:57.886Z,63.26
2023-04-23T02:18:59.859Z,63.25
2023-04-23T02:20:02.948Z,63.10
2023-04-23T02:21:06.344Z,62.98
2023-04-23T02:22:09.351Z,63.10
2023-04-23T02:23:12.192Z,62.90
2023-04-23T02:24:14.210Z,62.84
2023-04-23T02:25:18.079Z,62.80
2023-04-23T02:26:20.380Z,62.79
2023-04-23T02:27:22.490Z,63.82
2023-04-23T02:28:24.603Z,65.14
2023-04-23T02:29:26.445Z,64.70
2023-04-23T02:30:28.378Z,64.27
2023-04-23T02:31:30.784Z,65.39
2023-04-23T02:32:32.738Z,66.15
2023-04-23T02:33:35.073Z,66.03
2023-04-23T02:34:37.472Z,65.78
2023-04-23T02:35:39.600Z,65.68
2023-04-23T02:36:42.044Z,66.06
2023-04-23T02:37:43.895Z,66.61
2023-04-23T02:38:47.584Z,66.43
2023-04-23T02:39:49.485Z,67.06
2023-04-23T02:40:51.738Z,67.12
2023-04-23T02:41:53.874Z,67.05
2023-04-23T02:42:55.831Z,67.08
2023-04-23T02:43:57.876Z,66.40
2023-04-23T02:44:59.791Z,66.44
2023-04-23T02:46:08.500Z,66.79
2023-04-23T02:47:11.802Z,66.90
2023-04-23T02:48:13.782Z,66.59
2023-04-23T02:49:16.113Z,66.31
2023-04-23T02:50:18.029Z,65.96
2023-04-23T02:51:20.267Z,65.90
2023-04-23T02:52:22.552Z,65.74
2023-04-23T02:53:24.497Z,66.19
2023-04-23T02:54:26.410Z,66.12
2023-04-23T02:55:29.828Z,66.11
2023-04-23T02:56:31.978Z,66.58
2023-04-23T02:57:34.570Z,65.98
2023-04-23T02:58:36.818Z,66.03
2023-04-23T02:59:38.725Z,66.23
2023-04-23T03:00:40.853Z,66.64
2023-04-23T03:01:42.923Z,67.00
2023-04-23T03:02:45.838Z,67.15
2023-04-23T03:03:48.296Z,66.96
2023-04-23T03:04:51.416Z,67.08
2023-04-23T03:05:54.148Z,66.81
2023-04-23T03:06:56.644Z,66.61
2023-04-23T03:07:58.846Z,66.55
2023-04-23T03:09:01.435Z,66.67
2023-04-23T03:10:03.604Z,66.24
2023-04-23T03:11:05.956Z,65.48
2023-04-23T03:12:07.905Z,65.00
2023-04-23T03:13:10.172Z,64.82
2023-04-23T03:14:12.127Z,64.63
2023-04-23T03:15:14.128Z,64.47
2023-04-23T03:16:16.777Z,64.64
2023-04-23T03:17:18.725Z,64.45
2023-04-23T03:18:20.981Z,63.70
2023-04-23T03:19:23.402Z,63.74
2023-04-23T03:20:25.541Z,63.94
2023-04-23T03:21:27.510Z,63.85
2023-04-23T03:22:29.496Z,64.15
2023-04-23T03:23:31.667Z,63.96
2023-04-23T03:24:34.594Z,63.37
2023-04-23T03:25:36.432Z,63.67
2023-04-23T03:26:38.277Z,64.48
2023-04-23T03:27:40.703Z,65.15
2023-04-23T03:28:42.861Z,65.10
2023-04-23T03:29:44.788Z,64.62
2023-04-23T03:30:46.693Z,65.22
2023-04-23T03:31:48.717Z,64.40
2023-04-23T03:32:51.182Z,64.20
2023-04-23T03:33:53.808Z,64.15
2023-04-23T03:34:57.574Z,64.17
2023-04-23T03:35:59.499Z,64.07
2023-04-23T03:37:02.153Z,63.92
2023-04-23T03:38:06.157Z,64.04
2023-04-23T03:39:10.711Z,65.00
2023-04-23T03:40:14.606Z,64.80
2023-04-23T03:41:17.818Z,64.89
2023-04-23T03:42:19.790Z,65.76
2023-04-23T03:43:22.505Z,65.32
2023-04-23T03:44:26.559Z,65.28
2023-04-23T03:45:30.309Z,65.43
2023-04-23T03:46:32.537Z,64.94
2023-04-23T03:47:34.432Z,66.14
2023-04-23T03:48:36.505Z,66.11
2023-04-23T03:49:40.313Z,66.00
2023-04-23T03:50:42.709Z,65.95
2023-04-23T03:51:45.828Z,65.18
2023-04-23T03:52:47.779Z,66.26
2023-04-23T03:53:50.682Z,66.75
2023-04-23T03:54:56.424Z,67.36
2023-04-23T03:55:58.850Z,67.22
2023-04-23T03:57:01.766Z,67.88
2023-04-23T03:58:03.926Z,68.86
2023-04-23T03:59:06.281Z,69.30
2023-04-23T04:00:08.870Z,68.67
2023-04-23T04:01:15.152Z,67.64
2023-04-23T04:02:17.488Z,67.58
2023-04-23T04:03:19.664Z,75.64
2023-04-23T04:04:22.013Z,67.99
2023-04-23T04:05:24.390Z,67.25
2023-04-23T04:06:28.385Z,66.01
2023-04-23T04:07:31.169Z,66.42
2023-04-23T04:08:33.081Z,67.55
2023-04-23T04:09:35.536Z,67.67
2023-04-23T04:10:37.460Z,67.43
2023-04-23T04:11:39.343Z,66.74
2023-04-23T04:12:42.401Z,67.18
2023-04-23T04:13:44.537Z,67.49
2023-04-23T04:14:46.379Z,74.40
2023-04-23T04:15:48.369Z,67.58
2023-04-23T04:16:50.825Z,67.64
2023-04-23T04:17:53.096Z,67.15
2023-04-23T04:18:56.541Z,66.97
2023-04-23T04:19:58.641Z,67.12
2023-04-23T04:21:00.725Z,67.65
2023-04-23T04:22:03.731Z,67.19
2023-04-23T04:23:06.299Z,66.76
2023-04-23T04:24:08.692Z,66.70
2023-04-23T04:25:10.553Z,66.74
2023-04-23T04:26:13.218Z,67.68
2023-04-23T04:27:15.838Z,67.68
2023-04-23T04:28:17.995Z,67.27
2023-04-23T04:29:21.325Z,67.03
2023-04-23T04:30:24.940Z,67.26
2023-04-23T04:31:28.141Z,67.52
2023-04-23T04:32:30.236Z,68.37
2023-04-23T04:33:35.640Z,67.74
2023-04-23T04:34:38.380Z,67.15
2023-04-23T04:35:40.453Z,66.84
2023-04-23T04:36:42.484Z,66.57
2023-04-23T04:37:44.580Z,66.43
2023-04-23T04:38:46.730Z,66.08
2023-04-23T04:39:48.684Z,66.52
2023-04-23T04:40:50.629Z,67.02
2023-04-23T04:41:53.365Z,66.74
2023-04-23T04:42:55.405Z,67.45
2023-04-23T04:43:58.572Z,67.98
2023-04-23T04:45:00.794Z,67.34
2023-04-23T04:46:03.193Z,67.06
2023-04-23T04:47:09.316Z,67.00
2023-04-23T04:48:11.181Z,66.68
2023-04-23T04:49:13.449Z,67.06
2023-04-23T04:50:15.669Z,66.88
2023-04-23T04:51:17.732Z,65.95
2023-04-23T04:52:19.980Z,66.61
2023-04-23T04:53:21.834Z,66.70
2023-04-23T04:54:23.974Z,66.01
2023-04-23T04:55:25.825Z,65.48
2023-04-23T04:56:28.147Z,65.39
2023-04-23T04:57:30.029Z,65.46
2023-04-23T04:58:32.031Z,65.70
2023-04-23T04:59:34.158Z,65.35
2023-04-23T05:00:36.248Z,66.08
2023-04-23T05:01:38.408Z,65.61
2023-04-23T05:02:40.562Z,65.28
2023-04-23T05:03:42.580Z,65.65
2023-04-23T05:04:44.906Z,65.53
2023-04-23T05:05:48.651Z,65.24
2023-04-23T05:06:50.558Z,65.46
2023-04-23T05:07:54.315Z,64.92
2023-04-23T05:08:56.160Z,64.64
2023-04-23T05:09:58.305Z,64.60
2023-04-23T05:11:01.728Z,64.76
2023-04-23T05:12:03.883Z,65.00
2023-04-23T05:13:05.902Z,65.43
2023-04-23T05:14:07.822Z,65.19
2023-04-23T05:15:13.406Z,64.01
2023-04-23T05:16:15.825Z,63.88
2023-04-23T05:17:17.810Z,63.27
2023-04-23T05:18:20.686Z,63.17
2023-04-23T05:19:23.658Z,63.03
2023-04-23T05:20:26.274Z,62.85
2023-04-23T05:21:28.301Z,63.07
2023-04-23T05:22:30.657Z,63.00
2023-04-23T05:23:33.494Z,62.00
2023-04-23T05:24:35.348Z,62.35
2023-04-23T05:25:37.663Z,62.20
2023-04-23T05:26:39.681Z,61.87
2023-04-23T05:27:41.750Z,61.08
2023-04-23T05:28:43.730Z,60.85
2023-04-23T05:29:46.401Z,60.54
2023-04-23T05:30:49.141Z,60.36
2023-04-23T05:31:51.905Z,60.50
2023-04-23T05:32:54.251Z,60.40
2023-04-23T05:33:56.239Z,60.09
2023-04-23T05:35:00.011Z,59.89
2023-04-23T05:36:02.237Z,60.05
2023-04-23T05:37:04.098Z,59.87
2023-04-23T05:38:06.494Z,59.63
2023-04-23T05:39:08.511Z,59.47
2023-04-23T05:40:10.697Z,58.97
2023-04-23T05:41:13.077Z,58.77
2023-04-23T05:42:14.962Z,58.05
2023-04-23T05:43:16.861Z,57.14
2023-04-23T05:44:19.368Z,56.50
2023-04-23T05:45:21.783Z,56.58
2023-04-23T05:46:24.084Z,56.46
2023-04-23T05:47:25.987Z,56.37
2023-04-23T05:48:27.925Z,56.06
2023-04-23T05:49:29.878Z,55.86
2023-04-23T05:50:31.765Z,55.81
2023-04-23T05:51:33.898Z,55.61
2023-04-23T05:52:37.438Z,54.70
2023-04-23T05:53:39.466Z,54.66
2023-04-23T05:54:42.200Z,54.19
2023-04-23T05:55:44.240Z,53.25
2023-04-23T05:56:46.483Z,53.19
2023-04-23T05:57:48.388Z,53.55
2023-04-23T05:58:50.281Z,54.56
2023-04-23T05:59:52.103Z,55.70
2023-04-23T06:00:54.271Z,55.24
2023-04-23T06:01:56.544Z,54.61
2023-04-23T06:02:58.683Z,54.15
2023-04-23T06:04:00.892Z,53.66
2023-04-23T06:05:03.259Z,52.91
2023-04-23T06:06:05.492Z,53.02
2023-04-23T06:07:07.699Z,52.54
2023-04-23T06:08:09.625Z,51.60
2023-04-23T06:09:11.481Z,51.64
2023-04-23T06:10:13.371Z,51.19
2023-04-23T06:11:15.236Z,49.89
2023-04-23T06:12:18.396Z,49.36
2023-04-23T06:13:20.261Z,49.06
2023-04-23T06:14:22.230Z,48.41
2023-04-23T06:15:27.104Z,47.23
2023-04-23T06:16:29.602Z,46.95
2023-04-23T06:17:33.122Z,46.75
2023-04-23T06:18:36.409Z,43.89
2023-04-23T06:19:38.657Z,42.99
2023-04-23T06:20:41.079Z,43.59
2023-04-23T06:21:42.946Z,43.38
2023-04-23T06:22:45.391Z,43.16
2023-04-23T06:23:47.387Z,42.35
2023-04-23T06:24:49.242Z,42.13
2023-04-23T06:25:51.286Z,40.36
2023-04-23T06:26:53.154Z,41.09
2023-04-23T06:27:57.841Z,40.87
2023-04-23T06:29:00.027Z,39.88
2023-04-23T06:30:02.114Z,40.21
2023-04-23T06:31:05.655Z,39.15
2023-04-23T06:32:08.283Z,39.18
2023-04-23T06:33:10.811Z,38.99
2023-04-23T06:34:12.706Z,39.14
2023-04-23T06:35:14.555Z,39.50
2023-04-23T06:36:16.402Z,40.25
2023-04-23T06:37:18.310Z,40.65
2023-04-23T06:38:22.994Z,41.04
2023-04-23T06:39:24.855Z,41.69
2023-04-23T06:40:26.843Z,40.34
2023-04-23T06:41:28.900Z,40.67
2023-04-23T06:42:34.413Z,41.19
2023-04-23T06:43:37.774Z,40.26
2023-04-23T06:44:43.217Z,40.29
2023-04-23T06:45:45.423Z,39.71
2023-04-23T06:46:47.405Z,39.60
2023-04-23T06:47:49.883Z,39.84
2023-04-23T06:48:52.246Z,39.74
2023-04-23T06:49:54.268Z,38.83
2023-04-23T06:50:56.135Z,39.41
2023-04-23T06:51:58.093Z,39.02
2023-04-23T06:53:00.102Z,38.31
2023-04-23T06:54:02.402Z,38.15
2023-04-23T06:55:04.759Z,38.21
2023-04-23T06:56:07.831Z,38.32
2023-04-23T06:57:09.791Z,37.80
2023-04-23T06:58:12.754Z,37.70
2023-04-23T06:59:15.773Z,37.90
2023-04-23T07:00:18.266Z,37.76
2023-04-23T07:01:21.879Z,37.76
2023-04-23T07:02:24.050Z,37.44
2023-04-23T07:03:27.844Z,36.59
2023-04-23T07:04:30.192Z,36.79
2023-04-23T07:05:32.269Z,36.79
2023-04-23T07:06:34.739Z,36.45
2023-04-23T07:07:38.379Z,35.63
2023-04-23T07:08:40.449Z,34.02
2023-04-23T07:09:42.607Z,33.52
2023-04-23T07:10:44.532Z,34.39
2023-04-23T07:11:46.536Z,34.35
2023-04-23T07:12:48.437Z,33.72
2023-04-23T07:13:50.421Z,34.19
2023-04-23T07:14:54.326Z,34.26
2023-04-23T07:15:56.179Z,33.11
2023-04-23T07:16:59.327Z,32.04
2023-04-23T07:18:01.377Z,32.41
2023-04-23T07:19:03.357Z,33.21
2023-04-23T07:20:06.609Z,33.31
2023-04-23T07:21:08.762Z,33.46
2023-04-23T07:22:11.054Z,33.16
2023-04-23T07:23:13.009Z,32.59
2023-04-23T07:24:15.081Z,32.72
2023-04-23T07:25:17.251Z,32.73
2023-04-23T07:26:19.534Z,32.69
2023-04-23T07:27:21.404Z,32.75
2023-04-23T07:28:23.302Z,33.02
2023-04-23T07:29:25.426Z,35.08
2023-04-23T07:30:27.995Z,32.71
2023-04-23T07:31:30.059Z,32.74
2023-04-23T07:32:55.611Z,33.26
2023-04-23T07:33:57.532Z,31.79
2023-04-23T07:34:59.974Z,31.77
2023-04-23T07:36:02.190Z,31.48
2023-04-23T07:37:04.457Z,32.36
2023-04-23T07:38:06.447Z,32.04
2023-04-23T07:39:08.379Z,32.16
2023-04-23T07:40:10.555Z,30.77
2023-04-23T07:41:13.189Z,30.95
2023-04-23T07:42:15.024Z,30.93
2023-04-23T07:43:17.024Z,31.09
2023-04-23T07:44:18.924Z,31.44
2023-04-23T07:45:21.449Z,31.52
2023-04-23T07:46:23.729Z,31.41
2023-04-23T07:47:25.939Z,30.58
2023-04-23T07:48:27.918Z,30.52
2023-04-23T07:49:29.791Z,30.46
2023-04-23T07:50:31.659Z,29.41
2023-04-23T07:51:33.958Z,30.13
2023-04-23T07:52:36.031Z,31.71
2023-04-23T07:53:37.948Z,29.81
2023-04-23T07:54:39.901Z,30.73
2023-04-23T07:55:41.878Z,30.52
2023-04-23T07:56:44.030Z,30.77
2023-04-23T07:57:45.879Z,30.18
2023-04-23T07:58:47.760Z,30.19
2023-04-23T07:59:49.641Z,30.14
2023-04-23T08:00:51.887Z,29.34
2023-04-23T08:01:54.459Z,30.10
2023-04-23T08:02:56.503Z,29.08
2023-04-23T08:04:00.758Z,29.48
2023-04-23T08:05:03.535Z,30.21
2023-04-23T08:06:05.667Z,29.83
2023-04-23T08:07:07.889Z,29.74
2023-04-23T08:08:12.071Z,29.44
2023-04-23T08:09:14.002Z,29.55
2023-04-23T08:10:15.963Z,29.00
2023-04-23T08:11:17.870Z,30.13
2023-04-23T08:12:20.216Z,30.24
2023-04-23T08:13:22.354Z,30.80
2023-04-23T08:14:24.216Z,31.00
2023-04-23T08:15:26.417Z,30.92
2023-04-23T08:16:29.054Z,31.02
2023-04-23T08:17:32.171Z,30.28
2023-04-23T08:18:34.132Z,29.45
2023-04-23T08:19:36.053Z,29.93
2023-04-23T08:20:37.905Z,28.53
2023-04-23T08:21:40.157Z,27.48
2023-04-23T08:22:42.367Z,29.11
2023-04-23T08:23:44.247Z,29.48
2023-04-23T08:24:46.440Z,28.37
2023-04-23T08:25:48.304Z,28.91
2023-04-23T08:26:50.244Z,29.48
2023-04-23T08:27:52.560Z,29.06
2023-04-23T08:28:54.550Z,30.08
2023-04-23T08:29:56.471Z,29.30
2023-04-23T08:30:58.393Z,29.01
2023-04-23T08:32:00.385Z,29.37
2023-04-23T08:33:02.654Z,29.31
2023-04-23T08:34:04.754Z,28.94
2023-04-23T08:35:08.069Z,28.94
2023-04-23T08:36:09.965Z,27.84
2023-04-23T08:37:23.161Z,27.82
2023-04-23T08:38:32.317Z,28.42
2023-04-23T08:39:34.899Z,27.97
2023-04-23T08:40:37.860Z,28.68
2023-04-23T08:41:44.277Z,26.85
2023-04-23T08:42:57.344Z,27.43
2023-04-23T08:44:05.241Z,30.11
2023-04-23T08:45:07.845Z,27.76
2023-04-23T08:46:12.567Z,27.52
2023-04-23T08:47:18.383Z,27.87
2023-04-23T08:48:21.077Z,27.93
2023-04-23T08:49:24.164Z,27.52
2023-04-23T08:50:28.870Z,27.08
2023-04-23T08:51:33.950Z,28.07
2023-04-23T08:52:42.941Z,27.81
2023-04-23T08:53:48.207Z,26.85
2023-04-23T08:54:55.128Z,26.68
2023-04-23T08:55:57.631Z,25.91
2023-04-23T08:56:59.952Z,27.15
2023-04-23T08:58:03.161Z,27.98
2023-04-23T08:59:06.749Z,27.74
2023-04-23T09:00:11.125Z,27.09
2023-04-23T09:01:13.254Z,27.06
2023-04-23T09:02:17.065Z,27.15
2023-04-23T09:03:20.812Z,27.81
2023-04-23T09:04:23.839Z,26.94
2023-04-23T09:05:28.185Z,27.24
2023-04-23T09:06:32.326Z,27.73
2023-04-23T09:07:36.587Z,27.06
2023-04-23T09:08:42.374Z,27.35
2023-04-23T09:09:45.512Z,27.43
2023-04-23T09:10:50.599Z,27.33
2023-04-23T09:11:54.804Z,26.39
2023-04-23T09:12:57.035Z,27.50
2023-04-23T09:13:58.882Z,27.84
2023-04-23T09:15:01.363Z,27.62
2023-04-23T09:16:05.456Z,26.84
2023-04-23T09:17:07.342Z,26.96
2023-04-23T09:18:10.744Z,26.89
2023-04-23T09:19:13.016Z,27.15
2023-04-23T09:20:15.550Z,27.47
2023-04-23T09:21:18.050Z,27.33
2023-04-23T09:22:38.512Z,27.34
2023-04-23T09:23:41.402Z,25.87
2023-04-23T09:24:43.918Z,26.90
2023-04-23T09:25:45.849Z,27.69
2023-04-23T09:26:49.806Z,26.99
2023-04-23T09:27:53.109Z,26.74
2023-04-23T09:28:54.985Z,26.07
2023-04-23T09:29:57.683Z,25.65
2023-04-23T09:30:59.633Z,25.81
2023-04-23T09:32:09.510Z,25.54
2023-04-23T09:33:12.703Z,24.52
2023-04-23T09:34:22.587Z,24.79
2023-04-23T09:35:28.152Z,25.16
2023-04-23T09:36:31.966Z,25.41
2023-04-23T09:37:34.806Z,25.28
2023-04-23T09:38:36.722Z,25.42
2023-04-23T09:39:39.668Z,25.57
2023-04-23T09:40:41.807Z,24.98
2023-04-23T09:41:45.780Z,25.90
2023-04-23T09:42:55.222Z,26.58
2023-04-23T09:43:57.605Z,24.71
2023-04-23T09:45:04.374Z,25.04
2023-04-23T09:46:06.424Z,25.89
2023-04-23T09:47:14.948Z,24.89
2023-04-23T09:48:17.162Z,25.32
2023-04-23T09:49:19.112Z,25.19
2023-04-23T09:50:35.579Z,26.09
2023-04-23T09:51:37.825Z,25.84
2023-04-23T09:52:41.011Z,25.20
2023-04-23T09:53:44.237Z,24.91
2023-04-23T09:54:46.721Z,25.31
2023-04-23T09:55:48.705Z,25.36
2023-04-23T09:56:58.831Z,25.38
2023-04-23T09:58:03.036Z,24.81
2023-04-23T09:59:26.718Z,24.15
2023-04-23T10:00:39.543Z,24.78
2023-04-23T10:01:46.204Z,23.96
2023-04-23T10:02:52.159Z,22.60
2023-04-23T10:03:55.011Z,23.67
2023-04-23T10:05:06.747Z,23.32
2023-04-23T10:06:30.594Z,24.12
2023-04-23T10:07:38.900Z,23.95
2023-04-23T10:08:41.577Z,23.60
2023-04-23T10:09:43.763Z,23.51
2023-04-23T10:11:02.518Z,23.35
2023-04-23T10:12:27.908Z,23.11
2023-04-23T10:13:33.413Z,22.77
2023-04-23T10:14:35.290Z,24.16
2023-04-23T10:15:37.616Z,23.73
2023-04-23T10:16:48.692Z,23.94
2023-04-23T10:17:52.021Z,24.53
2023-04-23T10:18:55.476Z,24.23
2023-04-23T10:20:01.637Z,25.03
2023-04-23T10:21:04.383Z,24.97
2023-04-23T10:23:21.468Z,23.69
2023-04-23T10:24:30.425Z,23.65
2023-04-23T10:25:32.671Z,23.48
2023-04-23T10:26:36.465Z,22.91
2023-04-23T10:27:54.458Z,23.30
2023-04-23T10:29:00.009Z,23.35
2023-04-23T10:30:04.783Z,24.42
2023-04-23T10:31:09.528Z,24.32
2023-04-23T10:32:12.792Z,23.82
2023-04-23T10:33:29.105Z,23.96
2023-04-23T10:34:33.816Z,23.10
2023-04-23T10:35:36.328Z,22.28
2023-04-23T10:36:39.139Z,23.77
2023-04-23T10:37:41.852Z,23.35
2023-04-23T10:38:57.337Z,22.58
2023-04-23T10:40:24.668Z,23.25
2023-04-23T10:41:34.546Z,23.09
2023-04-23T10:42:36.583Z,22.51
2023-04-23T10:43:38.598Z,22.86
2023-04-23T10:45:50.331Z,22.58
2023-04-23T10:46:57.378Z,22.22
2023-04-23T10:47:59.426Z,22.49
2023-04-23T10:49:08.338Z,21.06
2023-04-23T10:50:20.938Z,21.17
2023-04-23T10:52:51.655Z,22.31
2023-04-23T10:53:53.504Z,21.81
2023-04-23T10:55:01.636Z,22.06
2023-04-23T10:56:07.953Z,22.78
2023-04-23T10:57:11.133Z,22.58
2023-04-23T10:58:13.352Z,22.59
2023-04-23T10:59:21.920Z,21.64
2023-04-23T11:00:24.475Z,21.68
2023-04-23T11:01:30.287Z,21.97
2023-04-23T11:02:44.921Z,21.03
2023-04-23T11:03:47.993Z,21.73
2023-04-23T11:04:58.838Z,21.98
2023-04-23T11:06:04.790Z,22.37
2023-04-23T11:07:11.142Z,21.99
2023-04-23T11:08:19.296Z,21.88
2023-04-23T11:09:32.174Z,21.10
2023-04-23T11:10:34.263Z,21.51
2023-04-23T11:11:41.390Z,22.05
2023-04-23T11:12:44.478Z,21.48
2023-04-23T11:13:56.117Z,21.91
2023-04-23T11:15:02.641Z,21.99
2023-04-23T11:16:18.429Z,22.41
2023-04-23T11:17:49.347Z,22.59
2023-04-23T11:19:12.413Z,21.34
2023-04-23T11:20:24.140Z,21.24
2023-04-23T11:21:56.477Z,21.72
2023-04-23T11:22:58.214Z,22.25
2023-04-23T11:24:02.702Z,22.16
2023-04-23T11:25:06.547Z,21.87
2023-04-23T11:26:09.344Z,21.87
2023-04-23T11:27:20.840Z,21.19
2023-04-23T11:28:22.899Z,21.59
2023-04-23T11:29:26.484Z,21.80
2023-04-23T11:30:31.991Z,22.49
2023-04-23T11:31:34.844Z,21.39
2023-04-23T11:32:36.828Z,21.38
2023-04-23T11:33:39.031Z,21.84
2023-04-23T11:34:43.306Z,22.38
2023-04-23T11:35:45.420Z,22.98
2023-04-23T11:36:51.413Z,22.44
2023-04-23T11:37:53.286Z,21.76
2023-04-23T11:38:58.400Z,20.77
2023-04-23T11:40:08.683Z,20.92
2023-04-23T11:41:14.025Z,21.53
2023-04-23T11:42:23.224Z,21.91
2023-04-23T11:43:25.081Z,23.15
2023-04-23T11:44:27.006Z,22.58
2023-04-23T11:45:29.914Z,22.81
2023-04-23T11:46:31.916Z,21.69
2023-04-23T11:47:34.438Z,21.76
2023-04-23T11:48:36.315Z,22.49
2023-04-23T11:49:39.748Z,22.33
2023-04-23T11:50:42.110Z,22.32
2023-04-23T11:51:44.802Z,22.53
2023-04-23T11:52:47.597Z,23.12
2023-04-23T11:53:49.713Z,22.26
2023-04-23T11:54:51.617Z,22.37
2023-04-23T11:55:54.359Z,22.16
2023-04-23T11:56:58.188Z,22.11
2023-04-23T11:58:00.557Z,22.57
2023-04-23T11:59:05.767Z,22.63
2023-04-23T12:00:27.486Z,23.44
2023-04-23T12:01:45.772Z,22.67
2023-04-23T12:03:01.212Z,22.89
2023-04-23T12:04:16.826Z,22.95
2023-04-23T12:05:33.974Z,23.25
2023-04-23T12:06:36.342Z,24.08
2023-04-23T12:07:39.045Z,24.27
2023-04-23T12:08:43.161Z,23.92
2023-04-23T12:09:46.113Z,23.72
2023-04-23T12:10:53.734Z,24.78
2023-04-23T12:11:58.178Z,23.64
2023-04-23T12:13:00.210Z,23.24
2023-04-23T12:14:02.447Z,23.62
2023-04-23T12:15:09.010Z,22.37
2023-04-23T12:16:11.179Z,23.01
2023-04-23T12:17:13.634Z,23.54
2023-04-23T12:18:15.983Z,23.48
2023-04-23T12:19:20.800Z,22.83
2023-04-23T12:20:23.188Z,23.30
2023-04-23T12:21:26.350Z,22.85
2023-04-23T12:22:28.568Z,21.91
2023-04-23T12:23:30.463Z,22.61
2023-04-23T12:24:46.431Z,21.92
2023-04-23T12:25:48.470Z,20.96
2023-04-23T12:26:54.652Z,21.30
2023-04-23T12:28:03.877Z,22.18
2023-04-23T12:29:07.741Z,22.58
2023-04-23T12:30:12.051Z,22.48
2023-04-23T12:31:21.938Z,22.72
2023-04-23T12:32:26.944Z,22.53
2023-04-23T12:33:30.692Z,22.05
2023-04-23T12:34:32.569Z,22.82
2023-04-23T12:36:00.953Z,22.74
2023-04-23T12:37:07.178Z,22.94
2023-04-23T12:38:25.191Z,22.29
2023-04-23T12:39:36.602Z,22.50
2023-04-23T12:40:38.491Z,22.14
2023-04-23T12:41:40.512Z,22.64
2023-04-23T12:42:42.483Z,21.87
2023-04-23T12:43:48.703Z,22.35
2023-04-23T12:44:52.106Z,22.20
2023-04-23T12:45:56.849Z,21.68
2023-04-23T12:47:03.348Z,21.81
2023-04-23T12:48:05.537Z,22.26
2023-04-23T12:49:07.455Z,21.99
2023-04-23T12:50:10.133Z,21.82
2023-04-23T12:51:12.005Z,21.84
2023-04-23T12:52:14.261Z,22.08
2023-04-23T12:53:18.806Z,22.21
2023-04-23T12:54:20.709Z,21.91
2023-04-23T12:55:22.901Z,22.08
2023-04-23T12:56:24.819Z,21.62
2023-04-23T12:57:33.494Z,20.25
2023-04-23T12:58:35.758Z,20.59
2023-04-23T12:59:38.172Z,21.27
2023-04-23T13:00:40.685Z,21.22
2023-04-23T13:01:42.713Z,21.27
2023-04-23T13:02:44.789Z,22.00
2023-04-23T13:03:47.007Z,22.66
2023-04-23T13:04:49.017Z,22.53
2023-04-23T13:05:51.206Z,21.89
2023-04-23T13:06:53.072Z,21.53
2023-04-23T13:07:54.955Z,22.44
2023-04-23T13:08:57.004Z,22.07
2023-04-23T13:09:59.703Z,22.26
2023-04-23T13:11:01.998Z,22.38
2023-04-23T13:12:03.985Z,22.04
2023-04-23T13:13:05.873Z,22.83
2023-04-23T13:14:09.389Z,21.87
2023-04-23T13:15:13.064Z,22.82
2023-04-23T13:16:15.340Z,22.88
2023-04-23T13:17:17.318Z,22.69
2023-04-23T13:18:20.078Z,22.83
2023-04-23T13:19:22.007Z,22.32
2023-04-23T13:20:25.320Z,22.47
2023-04-23T13:21:27.789Z,22.71
2023-04-23T13:22:30.153Z,21.27
2023-04-23T13:23:32.079Z,21.85
2023-04-23T13:24:34.039Z,22.07
2023-04-23T13:25:36.121Z,22.86
2023-04-23T13:26:38.460Z,22.23
2023-04-23T13:27:40.876Z,21.89
2023-04-23T13:28:42.807Z,22.60
2023-04-23T13:29:44.801Z,22.96
2023-04-23T13:30:47.233Z,22.44
2023-04-23T13:31:49.396Z,22.10
2023-04-23T13:32:51.323Z,22.28
2023-04-23T13:33:53.561Z,22.47
2023-04-23T13:34:55.638Z,22.42
2023-04-23T13:35:58.945Z,22.87
2023-04-23T13:37:05.454Z,23.35
2023-04-23T13:38:07.405Z,22.92
2023-04-23T13:39:12.084Z,22.65
2023-04-23T13:40:14.051Z,23.15
2023-04-23T13:41:16.018Z,22.77
2023-04-23T13:42:18.123Z,22.76
2023-04-23T13:43:20.482Z,22.95